Time;durP1;ratioP1;P1;durP2;ratioP2;P2;SDS_P1;SDS_P2;PMS_P1;PMS_P2;Temp;Humidity;BMP_temperature;BMP_pressure;BME280_temperature;BME280_humidity;BME280_pressure;Samples;Min_cycle;Max_cycle;Signal;HPM_P1;HPM_P2
2023/05/08 00:00:45;;;;;;;8.00;7.40;;;;;;;16.02;100.00;100551.59;5008142;28;20184;-76
2023/05/08 00:03:10;;;;;;;8.57;7.87;;;;;;;16.03;100.00;100555.09;5011117;28;20211;-76
2023/05/08 00:05:36;;;;;;;8.00;7.40;;;;;;;16.04;100.00;100560.25;5028995;28;20699;-76
2023/05/08 00:08:01;;;;;;;7.30;6.73;;;;;;;16.07;100.00;100554.06;5026953;28;20735;-76
2023/05/08 00:10:28;;;;;;;8.53;7.83;;;;;;;16.08;100.00;100558.41;5026837;28;20190;-77
2023/05/08 00:12:54;;;;;;;7.90;7.30;;;;;;;16.09;100.00;100558.38;5012644;28;20281;-76
2023/05/08 00:15:19;;;;;;;9.10;8.40;;;;;;;16.10;100.00;100549.66;5027487;28;20183;-76
2023/05/08 00:17:44;;;;;;;9.23;8.30;;;;;;;16.11;100.00;100559.16;5027323;28;20293;-77
2023/05/08 00:20:11;;;;;;;11.33;10.37;;;;;;;16.08;100.00;100556.66;5025350;28;20242;-77
2023/05/08 00:22:36;;;;;;;11.40;10.50;;;;;;;16.05;100.00;100555.88;5027878;28;20211;-76
2023/05/08 00:25:04;;;;;;;11.77;10.77;;;;;;;16.04;100.00;100562.84;5022779;28;20209;-76
2023/05/08 00:27:30;;;;;;;11.50;10.40;;;;;;;16.02;100.00;100562.03;5021173;28;20728;-75
2023/05/08 00:29:55;;;;;;;11.50;10.60;;;;;;;16.02;100.00;100551.59;5029779;28;20195;-76
2023/05/08 00:32:20;;;;;;;12.07;11.07;;;;;;;16.04;100.00;100555.03;5027147;28;20223;-76
2023/05/08 00:34:46;;;;;;;15.23;13.83;;;;;;;16.03;100.00;100553.31;5029101;28;20204;-75
2023/05/08 00:37:11;;;;;;;16.33;14.90;;;;;;;16.00;100.00;100548.16;5026530;28;20188;-76
2023/05/08 00:39:36;;;;;;;15.57;14.17;;;;;;;15.97;100.00;100548.25;5023496;28;20257;-76
2023/05/08 00:42:02;;;;;;;14.97;13.70;;;;;;;15.97;100.00;100556.06;5025129;28;20189;-75
2023/05/08 00:44:27;;;;;;;15.47;14.00;;;;;;;15.97;100.00;100556.06;5009183;28;20205;-77
2023/05/08 00:46:52;;;;;;;15.03;13.63;;;;;;;15.96;100.00;100550.00;5023384;28;20188;-77
2023/05/08 00:49:18;;;;;;;15.43;14.03;;;;;;;15.97;100.00;100556.06;5025393;28;20188;-76
2023/05/08 00:51:46;;;;;;;17.13;15.63;;;;;;;15.98;100.00;100558.66;5028080;28;20194;-76
2023/05/08 00:54:12;;;;;;;17.60;15.90;;;;;;;15.97;100.00;100562.16;5028847;28;20214;-77
2023/05/08 00:56:38;;;;;;;18.13;16.53;;;;;;;15.96;100.00;100560.47;5027734;28;20230;-76
2023/05/08 00:59:07;;;;;;;16.17;14.77;;;;;;;15.95;100.00;100558.75;5022311;28;20659;-77
2023/05/08 01:01:36;;;;;;;16.47;14.87;;;;;;;15.97;100.00;100558.69;5011355;28;20183;-76
2023/05/08 01:04:05;;;;;;;16.37;14.73;;;;;;;15.98;100.00;100563.00;5024802;28;20227;-76
2023/05/08 01:06:30;;;;;;;14.87;13.57;;;;;;;15.99;100.00;100559.50;5022175;28;20203;-76
2023/05/08 01:08:56;;;;;;;15.13;13.73;;;;;;;16.01;100.00;100560.31;5008097;28;20185;-77
2023/05/08 01:11:28;;;;;;;14.47;13.27;;;;;;;16.03;100.00;100563.75;5025016;28;20180;-76
2023/05/08 01:14:16;;;;;;;14.57;13.27;;;;;;;16.03;100.00;100566.38;5026433;28;20220;-77
2023/05/08 01:17:05;;;;;;;15.20;13.90;;;;;;;16.02;100.00;100564.66;5023573;28;20191;-77
2023/05/08 01:19:39;;;;;;;14.37;13.07;;;;;;;16.00;100.00;100564.72;5026490;28;20700;-77
2023/05/08 01:22:38;;;;;;;15.63;14.23;;;;;;;16.00;100.00;100562.09;5024482;28;20196;-77
2023/05/08 01:25:26;;;;;;;15.00;13.80;;;;;;;15.99;100.00;100560.38;5023460;28;20270;-78
2023/05/08 01:28:27;;;;;;;16.67;15.17;;;;;;;15.98;100.00;100565.63;5023942;28;20188;-75
2023/05/08 01:31:12;;;;;;;15.13;13.83;;;;;;;15.95;100.00;100558.75;5022255;28;20248;-77
2023/05/08 01:33:54;;;;;;;14.53;13.33;;;;;;;15.96;100.00;100559.59;5025830;28;20219;-76
2023/05/08 01:36:32;;;;;;;13.53;12.43;;;;;;;15.97;100.00;100559.56;5027720;28;20263;-77
2023/05/08 01:39:18;;;;;;;14.50;13.27;;;;;;;15.99;100.00;100555.16;5027114;28;20190;-78
2023/05/08 01:42:01;;;;;;;14.20;13.03;;;;;;;15.99;100.00;100559.50;5011174;28;20639;-77
2023/05/08 01:44:42;;;;;;;13.23;12.13;;;;;;;16.01;100.00;100565.53;5025573;28;20223;-77
2023/05/08 01:47:10;;;;;;;12.63;11.43;;;;;;;16.02;100.00;100564.66;5025000;28;20194;-77
2023/05/08 01:49:48;;;;;;;12.73;11.70;;;;;;;16.02;100.00;100562.03;5007935;28;20406;-76
2023/05/08 01:52:33;;;;;;;12.90;11.80;;;;;;;16.02;100.00;100555.97;5022339;28;20867;-76
2023/05/08 01:55:03;;;;;;;14.27;13.07;;;;;;;16.03;100.00;100566.38;5022029;28;20270;-76
2023/05/08 01:57:33;;;;;;;12.73;11.73;;;;;;;16.02;100.00;100563.81;5024079;28;20976;-77
2023/05/08 02:00:00;;;;;;;12.93;11.93;;;;;;;16.03;100.00;100570.75;5024936;28;20972;-77
2023/05/08 02:02:28;;;;;;;13.00;11.83;;;;;;;16.03;100.00;100574.19;5022318;28;20184;-77
2023/05/08 02:04:55;;;;;;;13.27;12.17;;;;;;;16.05;100.00;100568.91;5023392;28;20248;-77
2023/05/08 02:07:25;;;;;;;12.80;11.70;;;;;;;16.06;100.00;100574.13;5005583;28;20814;-77
2023/05/08 02:09:52;;;;;;;13.37;12.27;;;;;;;16.06;100.00;100574.13;5025713;28;20193;-76
2023/05/08 02:12:20;;;;;;;12.50;11.40;;;;;;;16.07;100.00;100574.97;5022348;28;20208;-76
2023/05/08 02:14:48;;;;;;;12.70;11.60;;;;;;;16.08;100.00;100567.09;5024808;28;20679;-77
2023/05/08 02:17:16;;;;;;;13.83;12.63;;;;;;;16.09;100.00;100563.59;5024671;28;20226;-77
2023/05/08 02:19:42;;;;;;;13.40;12.27;;;;;;;16.09;100.00;100568.81;5020775;28;20211;-77
2023/05/08 02:22:08;;;;;;;13.43;12.33;;;;;;;16.09;100.00;100573.16;5022859;28;20185;-78
2023/05/08 02:24:35;;;;;;;12.93;11.83;;;;;;;16.07;100.00;100561.91;5017891;28;20208;-76
2023/05/08 02:27:01;;;;;;;12.43;11.33;;;;;;;16.07;100.00;100572.34;5023951;28;20199;-77
2023/05/08 02:29:28;;;;;;;12.83;11.73;;;;;;;16.05;100.00;100577.63;5022463;28;20187;-76
2023/05/08 02:31:55;;;;;;;12.13;11.13;;;;;;;16.06;100.00;100575.84;5024221;28;21071;-76
2023/05/08 02:34:22;;;;;;;12.83;11.73;;;;;;;16.07;100.00;100572.34;5023533;28;20218;-77
2023/05/08 02:36:50;;;;;;;13.33;12.13;;;;;;;16.07;100.00;100583.66;5023957;28;20237;-76
2023/05/08 02:39:17;;;;;;;13.90;12.57;;;;;;;16.07;100.00;100585.41;5023650;28;20237;-77
2023/05/08 02:41:43;;;;;;;12.13;11.13;;;;;;;16.07;100.00;100580.19;5022206;28;20286;-76
2023/05/08 02:44:09;;;;;;;14.10;12.97;;;;;;;16.07;100.00;100588.00;5024351;28;20244;-77
2023/05/08 02:46:52;;;;;;;13.87;12.77;;;;;;;16.05;100.00;100585.47;5007997;28;20182;-77
2023/05/08 02:49:30;;;;;;;14.13;12.93;;;;;;;16.04;100.00;100580.25;5023225;28;20185;-76
2023/05/08 02:52:03;;;;;;;15.17;13.87;;;;;;;16.02;100.00;100585.53;5024039;28;20189;-78
2023/05/08 02:54:48;;;;;;;14.20;12.97;;;;;;;16.02;100.00;100590.75;5007557;28;21014;-77
2023/05/08 02:57:36;;;;;;;13.17;12.07;;;;;;;16.01;100.00;100583.81;5020279;28;20251;-76
2023/05/08 03:00:13;;;;;;;13.20;12.13;;;;;;;16.03;100.00;100584.63;5023358;28;20184;-77
2023/05/08 03:02:41;;;;;;;15.10;13.80;;;;;;;16.03;100.00;100587.25;5018701;28;20189;-76
2023/05/08 03:05:17;;;;;;;14.30;13.07;;;;;;;16.01;100.00;100581.22;5024060;28;20552;-77
2023/05/08 03:07:46;;;;;;;14.17;12.97;;;;;;;15.99;100.00;100588.22;5024610;28;20183;-77
2023/05/08 03:10:14;;;;;;;13.77;12.47;;;;;;;15.98;100.00;100579.53;5022355;28;20279;-77
2023/05/08 03:12:44;;;;;;;13.27;12.10;;;;;;;15.98;100.00;100581.28;5005564;28;20305;-76
2023/05/08 03:15:20;;;;;;;12.63;11.60;;;;;;;15.99;100.00;100583.00;5008395;28;20407;-77
2023/05/08 03:17:49;;;;;;;13.03;11.93;;;;;;;15.98;100.00;100576.06;5024510;28;21014;-77
2023/05/08 03:20:17;;;;;;;12.80;11.80;;;;;;;15.98;100.00;100578.69;5024911;28;20876;-76
2023/05/08 03:22:45;;;;;;;12.90;11.87;;;;;;;15.96;100.00;100578.72;5026034;28;20289;-76
2023/05/08 03:25:13;;;;;;;12.00;11.10;;;;;;;15.96;100.00;100572.63;5024522;28;20253;-76
2023/05/08 03:27:39;;;;;;;12.20;11.30;;;;;;;15.98;100.00;100579.53;5023662;28;20238;-77
2023/05/08 03:30:06;;;;;;;11.93;10.93;;;;;;;16.01;100.00;100573.38;5022336;28;20673;-77
2023/05/08 03:32:33;;;;;;;11.67;10.77;;;;;;;16.03;100.00;100576.81;5023476;28;20709;-77
2023/05/08 03:35:00;;;;;;;11.67;10.77;;;;;;;16.05;100.00;100575.00;5019983;28;20224;-77
2023/05/08 03:37:29;;;;;;;12.47;11.40;;;;;;;16.08;100.00;100576.69;5008391;28;20288;-77
2023/05/08 03:39:54;;;;;;;12.37;11.37;;;;;;;16.09;100.00;100583.59;5024355;28;20180;-76
2023/05/08 03:42:22;;;;;;;12.67;11.67;;;;;;;16.07;100.00;100578.44;5023321;28;20194;-76
2023/05/08 03:44:49;;;;;;;11.73;10.80;;;;;;;16.06;100.00;100583.69;5004061;28;20431;-77
2023/05/08 03:47:16;;;;;;;12.00;11.10;;;;;;;16.03;100.00;100584.63;5023618;28;20262;-77
2023/05/08 03:49:45;;;;;;;11.27;10.27;;;;;;;16.02;100.00;100584.69;5022611;28;20353;-76
2023/05/08 03:52:14;;;;;;;11.00;10.10;;;;;;;16.01;100.00;100581.22;5004963;28;20218;-77
2023/05/08 03:54:40;;;;;;;11.27;10.37;;;;;;;16.05;100.00;100587.19;5021340;28;20219;-76
2023/05/08 03:57:06;;;;;;;11.17;10.27;;;;;;;16.06;100.00;100592.41;5021228;28;20184;-77
2023/05/08 03:59:51;;;;;;;10.93;10.03;;;;;;;16.08;100.00;100587.13;5020145;28;21193;-77
2023/05/08 04:02:39;;;;;;;11.60;10.73;;;;;;;16.10;100.00;100598.38;5016621;28;20188;-76
2023/05/08 04:05:33;;;;;;;11.50;10.60;;;;;;;16.10;100.00;100596.66;5020522;28;20183;-76
2023/05/08 04:08:08;;;;;;;11.67;10.67;;;;;;;16.10;100.00;100588.81;5019942;28;20672;-77
2023/05/08 04:10:41;;;;;;;11.50;10.60;;;;;;;16.12;100.00;100597.44;5021281;28;20175;-77
2023/05/08 04:13:06;;;;;;;11.80;10.90;;;;;;;16.13;100.00;100604.38;5023697;28;20709;-77
2023/05/08 04:15:37;;;;;;;12.03;11.03;;;;;;;16.14;100.00;100597.41;5022388;28;20184;-76
2023/05/08 04:18:07;;;;;;;11.20;10.30;;;;;;;16.14;100.00;100595.63;5021291;28;20205;-76
2023/05/08 04:20:32;;;;;;;11.97;11.07;;;;;;;16.14;100.00;100594.78;5021509;28;20230;-76
2023/05/08 04:22:59;;;;;;;11.40;10.50;;;;;;;16.15;100.00;100596.50;5024363;28;20219;-77
2023/05/08 04:25:25;;;;;;;11.43;10.53;;;;;;;16.15;100.00;100599.13;5006393;28;20186;-77
2023/05/08 04:27:52;;;;;;;12.03;11.03;;;;;;;16.14;100.00;100603.47;5021548;28;20255;-77
2023/05/08 04:30:17;;;;;;;11.90;11.00;;;;;;;16.15;100.00;100606.97;5024280;28;20834;-77
2023/05/08 04:32:43;;;;;;;16.33;14.70;;;;;;;16.13;100.00;100601.75;5023488;28;20211;-77
2023/05/08 04:35:09;;;;;;;22.37;19.20;;;;;;;16.14;100.00;100605.25;5022216;28;20233;-76
2023/05/08 04:37:34;;;;;;;20.73;17.07;;;;;;;16.13;100.00;100600.91;5022088;28;20277;-77
2023/05/08 04:40:00;;;;;;;15.17;13.63;;;;;;;16.13;100.00;100603.53;5021452;28;20193;-77
2023/05/08 04:42:26;;;;;;;11.77;10.57;;;;;;;16.12;100.00;100605.25;5020848;28;20627;-75
2023/05/08 04:44:52;;;;;;;9.53;8.57;;;;;;;16.12;100.00;100607.03;5026647;28;20287;-76
2023/05/08 04:47:17;;;;;;;7.50;6.80;;;;;;;16.11;100.00;100603.53;5022343;28;20197;-74
2023/05/08 04:49:43;;;;;;;6.60;6.03;;;;;;;16.10;100.00;100607.09;5024292;28;20185;-75
2023/05/08 04:52:08;;;;;;;12.07;8.47;;;;;;;16.11;100.00;100613.16;5027652;28;20213;-75
2023/05/08 04:54:34;;;;;;;22.37;15.73;;;;;;;16.09;100.00;100613.19;5024991;28;20208;-76
2023/05/08 04:56:59;;;;;;;20.93;14.37;;;;;;;16.09;100.00;100612.34;5021845;28;20673;-75
2023/05/08 04:59:25;;;;;;;17.87;12.10;;;;;;;16.11;100.00;100618.38;5025620;28;20543;-76
2023/05/08 05:01:50;;;;;;;11.80;9.63;;;;;;;16.12;100.00;100614.88;5023608;28;20183;-76
2023/05/08 05:04:16;;;;;;;9.30;8.07;;;;;;;16.13;100.00;100621.81;5024368;28;20281;-76
2023/05/08 05:06:41;;;;;;;7.63;6.70;;;;;;;16.14;100.00;100613.91;5025785;28;20182;-77
2023/05/08 05:09:07;;;;;;;7.07;6.37;;;;;;;16.17;100.00;100628.66;5026309;28;20196;-76
2023/05/08 05:11:33;;;;;;;5.53;5.03;;;;;;;16.20;100.00;100630.31;5026172;28;20205;-76
2023/05/08 05:13:58;;;;;;;5.57;5.00;;;;;;;16.22;100.00;100631.16;5028582;28;20329;-76
2023/05/08 05:16:23;;;;;;;4.53;4.13;;;;;;;16.23;100.00;100630.25;5010039;28;20194;-77
2023/05/08 05:18:49;;;;;;;4.93;4.53;;;;;;;16.25;100.00;100633.69;5028191;28;20619;-76
2023/05/08 05:21:14;;;;;;;4.50;4.10;;;;;;;16.28;100.00;100633.56;5023367;28;20190;-74
2023/05/08 05:23:40;;;;;;;4.00;3.70;;;;;;;16.30;100.00;100637.00;5027554;28;20200;-76
2023/05/08 05:26:05;;;;;;;3.83;3.53;;;;;;;16.32;100.00;100635.22;5028243;28;20206;-75
2023/05/08 05:28:31;;;;;;;4.00;3.70;;;;;;;16.36;100.00;100638.59;5008554;28;20187;-76
2023/05/08 05:30:56;;;;;;;4.37;3.90;;;;;;;16.39;100.00;100641.13;5027974;28;20196;-76
2023/05/08 05:33:21;;;;;;;4.73;4.43;;;;;;;16.40;100.00;100641.09;5008300;28;20219;-77
2023/05/08 05:35:47;;;;;;;5.60;5.20;;;;;;;16.45;100.00;100654.03;5025499;28;20194;-77
2023/05/08 05:38:12;;;;;;;5.80;5.30;;;;;;;16.49;100.00;100650.41;5005713;28;20183;-76
2023/05/08 05:40:37;;;;;;;7.03;6.43;;;;;;;16.52;100.00;100650.31;5024073;28;20563;-76
2023/05/08 05:43:03;;;;;;;8.50;7.80;;;;;;;16.56;100.00;100646.72;5026272;28;20204;-76
2023/05/08 05:45:28;;;;;;;9.60;8.70;;;;;;;16.60;100.00;100655.34;5026727;28;20227;-76
2023/05/08 05:47:53;;;;;;;10.00;9.13;;;;;;;16.64;100.00;100656.13;5026840;28;20191;-77
2023/05/08 05:50:20;;;;;;;12.90;11.70;;;;;;;16.66;100.00;100649.06;5018430;28;20189;-78
2023/05/08 05:52:45;;;;;;;18.43;16.63;;;;;;;16.63;100.00;100655.25;5021022;28;20264;-78
2023/05/08 05:55:11;;;;;;;17.47;15.87;;;;;;;16.60;100.00;100657.94;5025170;28;20190;-77
2023/05/08 05:57:36;;;;;;;19.53;17.77;;;;;;;16.59;100.00;100662.34;5008097;28;20276;-76
2023/05/08 06:00:03;;;;;;;18.33;16.63;;;;;;;16.59;100.00;100658.84;5026766;28;20200;-77
2023/05/08 06:02:29;;;;;;;19.00;17.40;;;;;;;16.60;100.00;100661.44;5023711;28;20195;-75
2023/05/08 06:04:54;;;;;;;18.93;17.30;;;;;;;16.58;100.00;100658.00;5026020;28;20207;-76
2023/05/08 06:07:20;;;;;;;18.43;16.77;;;;;;;16.58;100.00;100660.63;5022785;28;20198;-76
2023/05/08 06:09:46;;;;;;;19.87;18.07;;;;;;;16.58;100.00;100663.22;5024717;28;20191;-76
2023/05/08 06:12:12;;;;;;;19.23;17.50;;;;;;;16.57;100.00;100663.25;5027970;28;20246;-77
2023/05/08 06:14:37;;;;;;;20.63;18.77;;;;;;;16.58;100.00;100659.75;5009825;28;20214;-75
2023/05/08 06:17:02;;;;;;;20.60;18.80;;;;;;;16.58;100.00;100662.34;5032392;28;20987;-76
2023/05/08 06:19:28;;;;;;;20.03;18.23;;;;;;;16.59;100.00;100667.56;5010257;28;20209;-78
2023/05/08 06:21:53;;;;;;;19.77;17.97;;;;;;;16.61;100.00;100663.16;5026321;28;20641;-77
2023/05/08 06:24:19;;;;;;;18.70;17.10;;;;;;;16.63;100.00;100670.09;5026346;28;20303;-77
2023/05/08 06:26:45;;;;;;;21.00;19.10;;;;;;;16.65;100.00;100676.09;5009842;28;20645;-77
2023/05/08 06:29:11;;;;;;;19.97;18.17;;;;;;;16.65;100.00;100676.97;5026130;28;20241;-76
2023/05/08 06:31:36;;;;;;;22.63;20.40;;;;;;;16.65;100.00;100670.88;5020615;28;20194;-77
2023/05/08 06:34:01;;;;;;;21.23;19.43;;;;;;;16.63;100.00;100670.09;5027323;28;20213;-76
2023/05/08 06:36:27;;;;;;;20.70;18.90;;;;;;;16.62;100.00;100671.84;5029586;28;20180;-76
2023/05/08 06:38:52;;;;;;;20.20;18.50;;;;;;;16.66;100.00;100677.81;5024747;28;20189;-77
2023/05/08 06:41:18;;;;;;;19.33;17.53;;;;;;;16.69;100.00;100675.13;5018590;28;20890;-77
2023/05/08 06:43:43;;;;;;;19.10;17.40;;;;;;;16.73;100.00;100674.16;5026442;28;20267;-77
2023/05/08 06:46:08;;;;;;;18.40;16.70;;;;;;;16.76;100.00;100674.06;5024136;28;20199;-77
2023/05/08 06:48:34;;;;;;;17.00;15.50;;;;;;;16.80;100.00;100680.91;5024599;28;20190;-76
2023/05/08 06:50:59;;;;;;;19.07;17.37;;;;;;;16.86;100.00;100672.06;5021216;28;20194;-77
2023/05/08 06:53:24;;;;;;;18.33;16.73;;;;;;;16.90;100.00;100674.53;5024625;28;20294;-76
2023/05/08 06:55:50;;;;;;;18.77;17.17;;;;;;;16.98;100.00;100670.84;5024825;28;20195;-76
2023/05/08 06:58:15;;;;;;;20.20;18.30;;;;;;;17.03;100.00;100677.66;5003279;28;20269;-75
2023/05/08 07:00:41;;;;;;;18.33;16.67;;;;;;;17.10;100.00;100674.88;5021799;28;20670;-76
2023/05/08 07:03:07;;;;;;;16.83;15.30;;;;;;;17.15;100.00;100671.19;5018895;28;20674;-76
2023/05/08 07:05:32;;;;;;;14.47;13.17;;;;;;;17.21;100.00;100670.16;5026112;28;20190;-78
2023/05/08 07:07:57;;;;;;;28.83;22.90;;;;;;;17.25;100.00;100670.91;5026889;28;20176;-76
2023/05/08 07:10:23;;;;;;;55.30;34.80;;;;;;;17.28;100.00;100673.44;5026118;28;20220;-77
2023/05/08 07:12:48;;;;;;;40.50;28.40;;;;;;;17.30;100.00;100672.50;5026791;28;20918;-77
2023/05/08 07:15:14;;;;;;;48.50;32.47;;;;;;;17.32;100.00;100673.28;5017935;28;20555;-75
2023/05/08 07:17:40;;;;;;;79.00;61.80;;;;;;;17.33;100.00;100676.78;5023332;28;20202;-77
2023/05/08 07:20:06;;;;;;;78.03;63.60;;;;;;;17.36;100.00;100680.16;5027929;28;20189;-76
2023/05/08 07:22:32;;;;;;;70.70;62.87;;;;;;;17.41;100.00;100677.38;5022119;28;20199;-77
2023/05/08 07:24:57;;;;;;;63.53;54.70;;;;;;;17.46;100.00;100675.50;5028452;28;20207;-77
2023/05/08 07:27:22;;;;;;;47.10;42.00;;;;;;;17.55;100.00;100690.03;5023841;28;20643;-76
2023/05/08 07:29:48;;;;;;;38.33;34.30;;;;;;;17.63;100.00;100689.81;5023911;28;20282;-77
2023/05/08 07:32:14;;;;;;;31.03;27.83;;;;;;;17.72;100.00;100675.56;5024683;28;20246;-77
2023/05/08 07:34:39;;;;;;;25.50;22.90;;;;;;;17.83;100.00;100679.56;5024040;28;20214;-77
2023/05/08 07:37:05;;;;;;;20.83;18.67;;;;;;;17.95;100.00;100680.88;5022999;28;20210;-77
2023/05/08 07:39:30;;;;;;;15.80;14.33;;;;;;;18.09;100.00;100671.72;5022374;28;20202;-76
2023/05/08 07:41:55;;;;;;;13.10;11.93;;;;;;;18.21;100.00;100681.81;5025718;28;20191;-76
2023/05/08 07:44:21;;;;;;;11.43;10.43;;;;;;;18.32;100.00;100685.81;5027013;28;20223;-76
2023/05/08 07:46:46;;;;;;;10.77;9.77;;;;;;;18.40;100.00;100686.38;5021215;28;20408;-76
2023/05/08 07:49:11;;;;;;;9.00;8.20;;;;;;;18.46;100.00;100688.81;5018156;28;20194;-78
2023/05/08 07:51:37;;;;;;;8.37;7.57;;;;;;;18.51;100.00;100683.38;5024351;28;20183;-76
2023/05/08 07:54:03;;;;;;;8.07;7.37;;;;;;;18.54;100.00;100681.50;5023794;28;20215;-76
2023/05/08 07:56:28;;;;;;;8.23;7.53;;;;;;;18.58;100.00;100685.75;5025309;28;20219;-77
2023/05/08 07:58:53;;;;;;;8.43;7.73;;;;;;;18.57;100.00;100684.03;5023701;28;20667;-76
2023/05/08 08:01:19;;;;;;;8.30;7.60;;;;;;;18.56;100.00;100686.72;5025541;28;20191;-76
2023/05/08 08:03:45;;;;;;;6.83;6.33;;;;;;;18.59;100.00;100694.47;5022544;28;20203;-76
2023/05/08 08:06:10;;;;;;;7.67;6.93;;;;;;;18.63;100.00;100697.84;5025424;28;20191;-76
2023/05/08 08:08:36;;;;;;;7.87;7.17;;;;;;;18.65;100.00;100690.78;5026463;28;20184;-75
2023/05/08 08:11:01;;;;;;;7.77;7.17;;;;;;;18.67;100.00;100695.03;5002491;28;20277;-76
2023/05/08 08:13:26;;;;;;;7.17;6.63;;;;;;;18.70;100.00;100691.44;5003624;28;20220;-76
2023/05/08 08:15:52;;;;;;;7.37;6.77;;;;;;;18.76;100.00;100680.75;5021463;28;20619;-76
2023/05/08 08:18:17;;;;;;;8.00;7.40;;;;;;;18.87;100.00;100682.97;5027752;28;20210;-77
2023/05/08 08:20:43;;;;;;;7.67;7.00;;;;;;;18.99;100.00;100679.03;5029156;28;20233;-77
2023/05/08 08:23:08;;;;;;;7.97;7.27;;;;;;;19.16;100.00;100681.03;5029359;28;20211;-77
2023/05/08 08:25:34;;;;;;;7.63;7.03;;;;;;;19.33;100.00;100683.00;5026252;28;20317;-75
2023/05/08 08:27:59;;;;;;;7.70;7.03;;;;;;;19.42;100.00;100687.91;5030860;28;20190;-76
2023/05/08 08:30:24;;;;;;;6.80;6.20;;;;;;;19.49;100.00;100684.09;5013233;28;20592;-75
2023/05/08 08:32:50;;;;;;;8.33;7.63;;;;;;;19.60;100.00;100690.69;5027505;28;20219;-76
2023/05/08 08:35:15;;;;;;;7.17;6.57;;;;;;;19.70;100.00;100686.78;5029070;28;20207;-77
2023/05/08 08:37:41;;;;;;;7.23;6.63;;;;;;;19.84;100.00;100691.44;5031451;28;20196;-76
2023/05/08 08:40:07;;;;;;;7.20;6.60;;;;;;;19.97;100.00;100678.69;5028759;28;20183;-77
2023/05/08 08:42:32;;;;;;;7.57;6.97;;;;;;;20.11;100.00;100680.75;5028822;28;20244;-76
2023/05/08 08:44:59;;;;;;;8.43;7.63;;;;;;;20.19;100.00;100683.91;5031256;28;20199;-77
2023/05/08 08:47:28;;;;;;;8.07;7.37;;;;;;;20.22;100.00;100686.41;5028582;28;20199;-77
2023/05/08 08:49:54;;;;;;;7.77;7.17;;;;;;;20.29;100.00;100689.63;5030348;28;20191;-78
2023/05/08 08:52:30;;;;;;;7.37;6.77;;;;;;;20.36;100.00;100691.03;5030372;28;20211;-75
2023/05/08 08:55:01;;;;;;;7.67;7.07;;;;;;;20.43;100.00;100691.63;5019635;28;20215;-77
2023/05/08 08:57:27;;;;;;;8.10;7.40;;;;;;;20.42;100.00;100689.91;5011673;28;20202;-77
2023/05/08 08:59:54;;;;;;;7.43;6.83;;;;;;;20.44;100.00;100681.97;5029155;28;20612;-76
2023/05/08 09:02:22;;;;;;;7.53;6.93;;;;;;;20.50;100.00;100679.94;5029753;28;20188;-77
2023/05/08 09:04:48;;;;;;;8.80;8.10;;;;;;;20.54;100.00;100685.91;5026974;28;20203;-77
2023/05/08 09:07:16;;;;;;;7.43;6.83;;;;;;;20.53;100.00;100698.22;5013954;28;20196;-75
2023/05/08 09:09:43;;;;;;;9.60;8.70;;;;;;;20.47;100.00;100702.88;5027522;28;20226;-76
2023/05/08 09:12:09;;;;;;;9.40;8.60;;;;;;;20.33;100.00;100690.31;5028437;28;20188;-77
2023/05/08 09:14:35;;;;;;;10.87;9.93;;;;;;;20.25;100.00;100695.91;5024041;28;20211;-75
2023/05/08 09:17:00;;;;;;;11.73;10.63;;;;;;;20.09;100.00;100693.09;5028500;28;20722;-76
2023/05/08 09:19:27;;;;;;;11.77;10.77;;;;;;;19.98;100.00;100703.19;5025875;28;20690;-74
2023/05/08 09:21:53;;;;;;;12.17;11.17;;;;;;;19.85;100.00;100703.66;5029797;28;20188;-76
2023/05/08 09:24:18;;;;;;;12.87;11.73;;;;;;;19.79;100.00;100707.41;5027310;28;20218;-77
2023/05/08 09:26:43;;;;;;;14.93;13.60;;;;;;;19.71;100.00;100708.63;5029482;28;20192;-76
2023/05/08 09:29:12;;;;;;;15.37;14.00;;;;;;;19.64;100.00;100711.53;5022618;28;20183;-77
2023/05/08 09:31:39;;;;;;;14.10;12.87;;;;;;;19.74;100.00;100708.50;5025609;28;20196;-76
2023/05/08 09:34:10;;;;;;;15.20;13.87;;;;;;;19.84;100.00;100711.63;5026612;28;20230;-76
2023/05/08 09:36:36;;;;;;;13.83;12.53;;;;;;;19.93;100.00;100709.50;5026772;28;20183;-75
2023/05/08 09:39:02;;;;;;;14.00;12.70;;;;;;;20.08;100.00;100697.47;5027529;28;20187;-75
2023/05/08 09:41:27;;;;;;;16.53;15.03;;;;;;;20.17;100.00;100703.28;5008968;28;20199;-77
2023/05/08 09:44:03;;;;;;;14.43;13.13;;;;;;;20.29;100.00;100709.78;5023653;28;20215;-77
2023/05/08 09:46:29;;;;;;;13.97;12.67;;;;;;;20.43;100.00;100709.19;5023573;28;20205;-78
2023/05/08 09:48:57;;;;;;;14.00;12.80;;;;;;;20.48;100.00;100707.22;5017223;28;20563;-77
2023/05/08 09:51:25;;;;;;;15.00;13.70;;;;;;;20.43;100.00;100703.94;5008138;28;20287;-77
2023/05/08 09:53:53;;;;;;;14.80;13.50;;;;;;;20.37;100.00;100705.91;5028040;28;20238;-76
2023/05/08 09:56:38;;;;;;;13.83;12.63;;;;;;;20.44;100.00;100717.00;5027504;28;20586;-78
2023/05/08 09:59:23;;;;;;;16.77;15.27;;;;;;;20.35;100.00;100712.16;5020636;28;20714;-77
2023/05/08 10:01:49;;;;;;;13.73;12.60;;;;;;;20.35;100.00;100712.97;5036992;28;20691;-77
2023/05/08 10:04:15;;;;;;;14.00;12.80;;;;;;;20.37;100.00;100710.31;5027313;28;20298;-75
2023/05/08 10:06:40;;;;;;;14.73;13.47;;;;;;;20.40;100.00;100704.94;5001593;28;20262;-75
2023/05/08 10:09:11;;;;;;;13.43;12.33;;;;;;;20.54;100.00;100709.56;5014787;28;20257;-76
2023/05/08 10:11:38;;;;;;;13.50;12.30;;;;;;;20.68;100.00;100706.34;5010709;28;20195;-75
2023/05/08 10:14:03;;;;;;;12.70;11.60;;;;;;;20.90;100.00;100708.88;5026054;28;20219;-76
2023/05/08 10:16:30;;;;;;;10.97;10.07;;;;;;;21.10;100.00;100701.84;5020957;28;20817;-77
2023/05/08 10:19:00;;;;;;;11.63;10.73;;;;;;;21.24;100.00;100712.59;5027174;28;20257;-77
2023/05/08 10:21:28;;;;;;;12.27;11.27;;;;;;;21.43;100.00;100709.06;5027048;28;20916;-76
2023/05/08 10:23:56;;;;;;;11.63;10.63;;;;;;;21.70;100.00;100709.53;5024952;28;20290;-77
2023/05/08 10:26:30;;;;;;;12.43;11.43;;;;;;;21.98;99.52;100700.28;5026698;28;20249;-76
2023/05/08 10:28:57;;;;;;;12.20;11.20;;;;;;;22.20;98.48;100702.66;5021088;28;20188;-75
2023/05/08 10:31:27;;;;;;;11.93;11.03;;;;;;;22.49;97.89;100702.97;5026675;28;20187;-76
2023/05/08 10:33:55;;;;;;;14.73;13.43;;;;;;;22.67;95.12;100702.94;5015067;28;20801;-76
2023/05/08 10:36:22;;;;;;;11.43;10.47;;;;;;;22.98;95.20;100693.38;5029072;28;20203;-76
2023/05/08 10:38:49;;;;;;;10.90;10.00;;;;;;;23.38;94.45;100698.25;5024121;28;21007;-76
2023/05/08 10:41:14;;;;;;;12.63;11.37;;;;;;;23.65;92.62;100697.63;5011737;28;20196;-77
2023/05/08 10:43:41;;;;;;;14.73;13.33;;;;;;;23.50;89.55;100697.56;5019709;28;20761;-77
2023/05/08 10:46:14;;;;;;;12.77;11.77;;;;;;;23.70;89.61;100692.94;5024236;28;20191;-76
2023/05/08 10:48:57;;;;;;;11.50;10.60;;;;;;;23.82;88.47;100694.84;5025325;28;20191;-76
2023/05/08 10:52:11;;;;;;;12.30;11.27;;;;;;;24.00;87.62;100682.38;5026134;28;20257;-75
2023/05/08 10:54:57;;;;;;;13.73;12.53;;;;;;;24.09;87.58;100685.44;5013426;28;20219;-77
2023/05/08 10:57:22;;;;;;;12.33;11.27;;;;;;;24.32;86.97;100678.75;5024060;28;20187;-77
2023/05/08 10:59:48;;;;;;;12.40;11.27;;;;;;;24.58;85.63;100674.47;5026058;28;20199;-77
2023/05/08 11:02:14;;;;;;;11.77;10.73;;;;;;;24.78;84.08;100670.66;5027699;28;20656;-76
2023/05/08 11:04:39;;;;;;;10.80;9.93;;;;;;;24.95;83.99;100676.69;5024083;28;20203;-76
2023/05/08 11:07:05;;;;;;;10.43;9.63;;;;;;;25.14;84.10;100672.84;5023635;28;20189;-76
2023/05/08 11:09:39;;;;;;;10.00;9.27;;;;;;;25.27;82.77;100668.44;5025692;28;20605;-76
2023/05/08 11:12:07;;;;;;;12.87;11.77;;;;;;;24.88;82.71;100673.53;5024554;28;20572;-76